Time;durP1;ratioP1;P1;durP2;ratioP2;P2;SDS_P1;SDS_P2;PMS_P1;PMS_P2;Temp;Humidity;BMP_temperature;BMP_pressure;BME280_temperature;BME280_humidity;BME280_pressure;Samples;Min_cycle;Max_cycle;Signal;HPM_P1;HPM_P2
2022/10/13 00:02:04;;;;;;;;;;;19.80;64.80;;;;;;5053066;28;19970;-65
2022/10/13 00:04:29;;;;;;;;;;;19.70;64.70;;;;;;5051988;28;19931;-65
2022/10/13 00:06:54;;;;;;;;;;;19.70;64.70;;;;;;5053036;28;19924;-65
2022/10/13 00:09:20;;;;;;;;;;;19.70;64.70;;;;;;5068289;28;19920;-65
2022/10/13 00:11:45;;;;;;;;;;;19.70;64.70;;;;;;5052113;28;20020;-65
2022/10/13 00:14:11;;;;;;;;;;;19.70;64.60;;;;;;5052447;28;19930;-65
2022/10/13 00:16:36;;;;;;;;;;;19.70;64.60;;;;;;5055201;28;19924;-65
2022/10/13 00:19:02;;;;;;;;;;;19.70;64.60;;;;;;5039371;28;19925;-65
2022/10/13 00:21:28;;;;;;;;;;;19.70;64.70;;;;;;5056812;28;19925;-65
2022/10/13 00:23:53;;;;;;;;;;;19.70;64.60;;;;;;5056124;28;20341;-65
2022/10/13 00:26:19;;;;;;;;;;;19.70;64.60;;;;;;5056674;28;19925;-64
2022/10/13 00:28:45;;;;;;;;;;;19.70;64.50;;;;;;5056643;28;19921;-65
2022/10/13 00:31:20;;;;;;;;;;;19.70;64.60;;;;;;5055664;28;20042;-64
2022/10/13 00:33:48;;;;;;;;;;;19.70;64.50;;;;;;5056662;28;20007;-64
2022/10/13 00:36:13;;;;;;;;;;;19.60;64.60;;;;;;5056337;28;20446;-65
2022/10/13 00:38:39;;;;;;;;;;;19.70;64.50;;;;;;5055909;28;20380;-64
2022/10/13 00:41:04;;;;;;;;;;;19.70;64.50;;;;;;5056652;28;19921;-65
2022/10/13 00:43:49;;;;;;;;;;;19.60;64.40;;;;;;5038217;28;19936;-64
2022/10/13 00:46:15;;;;;;;;;;;19.60;64.40;;;;;;5055343;28;19924;-64
2022/10/13 00:48:40;;;;;;;;;;;19.60;64.50;;;;;;5071641;28;20372;-64
2022/10/13 00:51:06;;;;;;;;;;;19.60;64.40;;;;;;5056152;28;19925;-65
2022/10/13 00:53:32;;;;;;;;;;;19.60;64.40;;;;;;5055527;28;19925;-65
2022/10/13 00:55:58;;;;;;;;;;;19.60;64.40;;;;;;5056047;28;19944;-65
2022/10/13 00:58:24;;;;;;;;;;;19.60;64.40;;;;;;5038327;28;19925;-65
2022/10/13 01:00:49;;;;;;;;;;;19.60;64.40;;;;;;5055193;28;20377;-64
2022/10/13 01:03:16;;;;;;;;;;;19.60;64.40;;;;;;5038238;28;19967;-64
2022/10/13 01:05:41;;;;;;;;;;;19.60;64.40;;;;;;5055291;28;19925;-65
2022/10/13 01:08:07;;;;;;;;;;;19.60;64.40;;;;;;5071126;28;19979;-64
2022/10/13 01:10:33;;;;;;;;;;;19.60;64.40;;;;;;5055949;28;19951;-64
2022/10/13 01:13:11;;;;;;;;;;;19.60;64.40;;;;;;5070790;28;20608;-65
2022/10/13 01:16:00;;;;;;;;;;;19.50;64.30;;;;;;5038054;28;19929;-65
2022/10/13 01:18:29;;;;;;;;;;;19.60;64.40;;;;;;5047223;28;19929;-65
2022/10/13 01:20:54;;;;;;;;;;;19.60;64.30;;;;;;5037257;28;20296;-64
2022/10/13 01:23:29;;;;;;;;;;;19.50;64.30;;;;;;5056013;28;19932;-66
2022/10/13 01:26:13;;;;;;;;;;;19.60;64.30;;;;;;5038455;28;19925;-65
2022/10/13 01:28:50;;;;;;;;;;;19.50;64.30;;;;;;5055032;28;19924;-64
2022/10/13 01:31:19;;;;;;;;;;;19.50;64.20;;;;;;5054961;28;19925;-64
2022/10/13 01:33:56;;;;;;;;;;;19.50;64.20;;;;;;5055678;28;20008;-64
2022/10/13 01:36:25;;;;;;;;;;;19.50;64.20;;;;;;5037638;28;19925;-64
2022/10/13 01:39:00;;;;;;;;;;;19.50;64.20;;;;;;5037927;28;19925;-64
2022/10/13 01:41:32;;;;;;;;;;;19.50;64.20;;;;;;5054136;28;20722;-64
2022/10/13 01:44:14;;;;;;;;;;;19.50;64.20;;;;;;5037548;28;20268;-64
2022/10/13 01:46:40;;;;;;;;;;;19.50;64.10;;;;;;5055231;28;20486;-65
2022/10/13 01:49:07;;;;;;;;;;;19.50;64.10;;;;;;5036751;28;19925;-65
2022/10/13 01:51:32;;;;;;;;;;;19.50;64.20;;;;;;5055398;28;19968;-64
2022/10/13 01:53:58;;;;;;;;;;;19.50;64.10;;;;;;5037621;28;19964;-65
2022/10/13 01:56:23;;;;;;;;;;;19.50;64.10;;;;;;5054161;28;20319;-64
2022/10/13 01:58:49;;;;;;;;;;;19.50;64.10;;;;;;5055230;28;19925;-65
2022/10/13 02:01:27;;;;;;;;;;;19.50;64.10;;;;;;5054727;28;20020;-64
2022/10/13 02:04:04;;;;;;;;;;;19.50;64.10;;;;;;5054077;28;19932;-64
2022/10/13 02:06:31;;;;;;;;;;;19.50;64.10;;;;;;5054082;28;20008;-64
2022/10/13 02:09:02;;;;;;;;;;;19.50;64.10;;;;;;5054403;28;19967;-65
2022/10/13 02:11:28;;;;;;;;;;;19.50;64.10;;;;;;5054717;28;19970;-64
2022/10/13 02:13:56;;;;;;;;;;;19.50;64.00;;;;;;5070375;28;19929;-64
2022/10/13 02:16:22;;;;;;;;;;;19.50;64.10;;;;;;5053512;28;19925;-65
2022/10/13 02:18:48;;;;;;;;;;;19.40;64.00;;;;;;5053304;28;19932;-64
2022/10/13 02:21:13;;;;;;;;;;;19.40;64.00;;;;;;5054395;28;20368;-64
2022/10/13 02:23:39;;;;;;;;;;;19.40;64.00;;;;;;5069609;28;20038;-64
2022/10/13 02:26:04;;;;;;;;;;;19.40;64.10;;;;;;5070004;28;20292;-65
2022/10/13 02:28:30;;;;;;;;;;;19.40;64.00;;;;;;5054313;28;19929;-65
2022/10/13 02:30:55;;;;;;;;;;;19.40;64.00;;;;;;5053805;28;20015;-65
2022/10/13 02:33:21;;;;;;;;;;;19.40;64.00;;;;;;5053840;28;19924;-65
2022/10/13 02:35:46;;;;;;;;;;;19.40;64.00;;;;;;5054401;28;19936;-65
2022/10/13 02:38:11;;;;;;;;;;;19.40;64.00;;;;;;5052874;28;19966;-65
2022/10/13 02:40:37;;;;;;;;;;;19.40;64.00;;;;;;5054312;28;19932;-65
2022/10/13 02:43:02;;;;;;;;;;;19.40;64.00;;;;;;5054237;28;20395;-65
2022/10/13 02:45:28;;;;;;;;;;;19.40;64.00;;;;;;5053125;28;19924;-65
2022/10/13 02:47:54;;;;;;;;;;;19.40;64.00;;;;;;5054113;28;19924;-65
2022/10/13 02:50:19;;;;;;;;;;;19.40;64.00;;;;;;5053688;28;19925;-65
2022/10/13 02:52:45;;;;;;;;;;;19.40;64.00;;;;;;5053536;28;19925;-65
2022/10/13 02:55:10;;;;;;;;;;;19.30;63.90;;;;;;5053929;28;20020;-65
2022/10/13 02:57:36;;;;;;;;;;;19.40;64.00;;;;;;5053931;28;19929;-65
2022/10/13 03:00:04;;;;;;;;;;;19.40;64.00;;;;;;5053190;28;19924;-65
2022/10/13 03:02:29;;;;;;;;;;;19.40;64.00;;;;;;5053501;28;19925;-65
2022/10/13 03:04:55;;;;;;;;;;;19.40;64.10;;;;;;5069351;28;19931;-65
2022/10/13 03:07:21;;;;;;;;;;;19.40;64.00;;;;;;5052523;28;19925;-65
2022/10/13 03:09:46;;;;;;;;;;;19.40;64.00;;;;;;5054001;28;20041;-65
2022/10/13 03:12:12;;;;;;;;;;;19.40;64.00;;;;;;5053428;28;19925;-65
2022/10/13 03:14:37;;;;;;;;;;;19.40;64.00;;;;;;5053086;28;19925;-65
2022/10/13 03:17:03;;;;;;;;;;;19.40;64.00;;;;;;5053590;28;19932;-65
2022/10/13 03:19:28;;;;;;;;;;;19.40;64.00;;;;;;5052404;28;19931;-64
2022/10/13 03:21:54;;;;;;;;;;;19.40;64.00;;;;;;5053564;28;20019;-64
2022/10/13 03:24:19;;;;;;;;;;;19.50;64.60;;;;;;5053339;28;19920;-65
2022/10/13 03:26:44;;;;;;;;;;;19.40;64.00;;;;;;5052526;28;19948;-65
2022/10/13 03:29:14;;;;;;;;;;;19.50;64.00;;;;;;5053028;28;19978;-64
2022/10/13 03:31:40;;;;;;;;;;;19.50;64.00;;;;;;5053226;28;20414;-64
2022/10/13 03:34:06;;;;;;;;;;;19.40;64.00;;;;;;5052073;28;19925;-65
2022/10/13 03:36:31;;;;;;;;;;;19.40;64.00;;;;;;5053065;28;19948;-65
2022/10/13 03:38:57;;;;;;;;;;;19.50;64.00;;;;;;5053479;28;19936;-64
2022/10/13 03:41:22;;;;;;;;;;;19.50;64.00;;;;;;5067811;28;19925;-65
2022/10/13 03:43:47;;;;;;;;;;;19.50;64.00;;;;;;5053213;28;19935;-65
2022/10/13 03:46:13;;;;;;;;;;;19.50;64.00;;;;;;5052661;28;19932;-65
2022/10/13 03:48:39;;;;;;;;;;;19.50;64.00;;;;;;5052501;28;19925;-65
2022/10/13 03:51:08;;;;;;;;;;;19.60;64.00;;;;;;5052189;28;19925;-65
2022/10/13 03:53:34;;;;;;;;;;;19.60;64.00;;;;;;5052951;28;20438;-64
2022/10/13 03:56:00;;;;;;;;;;;19.60;64.00;;;;;;5052345;28;19924;-65
2022/10/13 03:58:27;;;;;;;;;;;19.60;64.00;;;;;;5052865;28;19928;-64
2022/10/13 04:00:53;;;;;;;;;;;19.60;64.00;;;;;;5050788;28;20352;-64
2022/10/13 04:03:19;;;;;;;;;;;19.60;64.00;;;;;;5048630;28;20019;-64
2022/10/13 04:05:44;;;;;;;;;;;19.60;64.00;;;;;;5052771;28;19928;-65
2022/10/13 04:08:11;;;;;;;;;;;19.60;63.90;;;;;;5052231;28;19928;-65
2022/10/13 04:10:36;;;;;;;;;;;19.70;64.00;;;;;;5052266;28;19971;-65
2022/10/13 04:13:02;;;;;;;;;;;19.70;64.00;;;;;;5035054;28;19925;-65
2022/10/13 04:15:27;;;;;;;;;;;19.70;63.90;;;;;;5067903;28;19928;-64
2022/10/13 04:17:53;;;;;;;;;;;19.70;63.90;;;;;;5052232;28;19940;-64
2022/10/13 04:20:18;;;;;;;;;;;19.70;63.90;;;;;;5052426;28;19925;-64
2022/10/13 04:22:44;;;;;;;;;;;19.70;63.90;;;;;;5052244;28;20035;-66
2022/10/13 04:25:10;;;;;;;;;;;19.70;63.90;;;;;;5068212;28;19978;-65
2022/10/13 04:27:37;;;;;;;;;;;19.70;63.90;;;;;;5052676;28;19925;-66
2022/10/13 04:30:06;;;;;;;;;;;19.70;63.90;;;;;;5052194;28;19932;-65
2022/10/13 04:32:31;;;;;;;;;;;19.80;63.90;;;;;;5052234;28;20296;-65
2022/10/13 04:34:57;;;;;;;;;;;19.80;63.90;;;;;;5052506;28;19936;-65
2022/10/13 04:37:22;;;;;;;;;;;19.80;63.90;;;;;;5051450;28;19925;-66
2022/10/13 04:39:48;;;;;;;;;;;19.80;63.90;;;;;;5052850;28;19925;-65
2022/10/13 04:42:13;;;;;;;;;;;19.80;63.90;;;;;;5052348;28;20370;-66
2022/10/13 04:44:39;;;;;;;;;;;19.80;63.90;;;;;;5052055;28;19925;-66
2022/10/13 04:47:04;;;;;;;;;;;19.80;63.80;;;;;;5052302;28;19925;-66
2022/10/13 04:49:30;;;;;;;;;;;19.80;63.80;;;;;;5052377;28;19925;-65
2022/10/13 04:51:56;;;;;;;;;;;19.80;63.90;;;;;;5051447;28;20320;-65
2022/10/13 04:54:21;;;;;;;;;;;19.90;63.90;;;;;;5034343;28;19932;-65
2022/10/13 04:56:47;;;;;;;;;;;19.90;63.90;;;;;;5052437;28;19944;-65
2022/10/13 04:59:12;;;;;;;;;;;19.90;63.90;;;;;;5051374;28;19967;-65
2022/10/13 05:01:38;;;;;;;;;;;19.90;63.90;;;;;;5053433;28;19925;-65
2022/10/13 05:04:03;;;;;;;;;;;19.90;63.90;;;;;;5056361;28;19931;-65
2022/10/13 05:06:33;;;;;;;;;;;19.90;63.90;;;;;;5054492;28;20059;-66
2022/10/13 05:08:58;;;;;;;;;;;19.90;63.80;;;;;;5056087;28;19964;-66
2022/10/13 05:11:25;;;;;;;;;;;19.90;63.90;;;;;;5055738;28;20352;-66
2022/10/13 05:13:50;;;;;;;;;;;19.90;63.90;;;;;;5055495;28;19939;-66
2022/10/13 05:16:16;;;;;;;;;;;19.90;63.80;;;;;;5055596;28;19925;-66
2022/10/13 05:18:42;;;;;;;;;;;20.00;63.90;;;;;;5056114;28;19925;-66
2022/10/13 05:21:08;;;;;;;;;;;20.00;63.90;;;;;;5055046;28;19925;-66
2022/10/13 05:23:34;;;;;;;;;;;20.00;63.90;;;;;;5055802;28;20338;-66
2022/10/13 05:26:01;;;;;;;;;;;20.00;63.90;;;;;;5055038;28;20429;-65
2022/10/13 05:28:26;;;;;;;;;;;20.00;63.90;;;;;;5055380;28;19929;-65
2022/10/13 05:30:52;;;;;;;;;;;20.00;63.90;;;;;;5055420;28;19929;-65
2022/10/13 05:33:17;;;;;;;;;;;20.00;63.80;;;;;;5054460;28;19931;-66
2022/10/13 05:35:43;;;;;;;;;;;20.00;63.80;;;;;;5055840;28;19932;-66
2022/10/13 05:38:09;;;;;;;;;;;20.00;63.80;;;;;;5055130;28;20384;-72
2022/10/13 05:40:34;;;;;;;;;;;20.00;63.80;;;;;;5054936;28;19925;-70
2022/10/13 05:42:59;;;;;;;;;;;20.00;63.80;;;;;;5055447;28;20434;-66
2022/10/13 05:45:25;;;;;;;;;;;20.10;63.90;;;;;;5055247;28;20039;-66
2022/10/13 05:47:50;;;;;;;;;;;20.10;63.90;;;;;;5036768;28;19924;-65
2022/10/13 05:50:16;;;;;;;;;;;20.10;63.90;;;;;;5055215;28;19948;-65
2022/10/13 05:52:41;;;;;;;;;;;20.10;63.90;;;;;;5055589;28;19924;-66
2022/10/13 05:55:07;;;;;;;;;;;20.10;63.90;;;;;;5036733;28;19929;-66
2022/10/13 05:57:36;;;;;;;;;;;20.10;63.90;;;;;;5055047;28;19932;-65
2022/10/13 06:00:06;;;;;;;;;;;20.10;64.10;;;;;;5055047;28;19956;-65
2022/10/13 06:02:33;;;;;;;;;;;20.10;64.10;;;;;;5048141;28;19967;-65
2022/10/13 06:04:59;;;;;;;;;;;20.10;64.10;;;;;;5049259;28;20868;-66
2022/10/13 06:07:24;;;;;;;;;;;20.10;64.20;;;;;;5047884;28;19924;-66
2022/10/13 06:09:50;;;;;;;;;;;20.20;64.30;;;;;;5046879;28;20008;-66
2022/10/13 06:12:15;;;;;;;;;;;20.20;64.40;;;;;;5052443;28;20372;-66
2022/10/13 06:14:41;;;;;;;;;;;20.20;64.40;;;;;;5052725;28;19921;-64
2022/10/13 06:17:06;;;;;;;;;;;20.20;64.50;;;;;;5044271;28;19968;-66
2022/10/13 06:19:32;;;;;;;;;;;20.20;64.50;;;;;;5045108;28;19932;-66
2022/10/13 06:21:57;;;;;;;;;;;20.20;64.50;;;;;;5048566;28;19936;-65
2022/10/13 06:24:23;;;;;;;;;;;20.20;64.50;;;;;;5047783;28;20682;-65
2022/10/13 06:26:48;;;;;;;;;;;20.20;64.60;;;;;;5046791;28;19932;-66
2022/10/13 06:29:14;;;;;;;;;;;20.20;64.80;;;;;;5051888;28;20388;-65
2022/10/13 06:31:39;;;;;;;;;;;20.30;64.90;;;;;;5053666;28;20015;-66
2022/10/13 06:34:05;;;;;;;;;;;20.30;64.80;;;;;;5053657;28;19947;-65
2022/10/13 06:36:30;;;;;;;;;;;20.30;64.80;;;;;;5052578;28;19925;-65
2022/10/13 06:38:56;;;;;;;;;;;20.30;64.70;;;;;;5035665;28;19925;-65
2022/10/13 06:41:21;;;;;;;;;;;20.30;64.70;;;;;;5053671;28;19925;-65
2022/10/13 06:43:47;;;;;;;;;;;20.30;64.70;;;;;;5053381;28;19941;-66
2022/10/13 06:46:12;;;;;;;;;;;20.30;64.60;;;;;;5052888;28;19960;-65
2022/10/13 06:48:38;;;;;;;;;;;20.30;64.60;;;;;;5053967;28;19929;-66
2022/10/13 06:51:03;;;;;;;;;;;20.30;64.60;;;;;;5053141;28;19925;-67
2022/10/13 06:53:29;;;;;;;;;;;20.30;64.60;;;;;;5053504;28;20363;-74
2022/10/13 06:55:55;;;;;;;;;;;20.30;64.60;;;;;;5053870;28;20020;-65
2022/10/13 06:58:21;;;;;;;;;;;20.30;64.60;;;;;;5052376;28;19924;-66
2022/10/13 07:00:46;;;;;;;;;;;20.30;64.70;;;;;;5053082;28;19944;-65
2022/10/13 07:03:11;;;;;;;;;;;20.40;64.90;;;;;;5053608;28;20016;-67
2022/10/13 07:05:37;;;;;;;;;;;20.40;64.90;;;;;;5053031;28;20422;-66
2022/10/13 07:08:02;;;;;;;;;;;20.40;64.80;;;;;;5052967;28;19925;-66
2022/10/13 07:10:28;;;;;;;;;;;20.40;64.70;;;;;;5052913;28;19931;-66
2022/10/13 07:12:53;;;;;;;;;;;20.40;64.70;;;;;;5052527;28;19967;-66
2022/10/13 07:15:19;;;;;;;;;;;20.40;64.60;;;;;;5052127;28;19975;-66
2022/10/13 07:17:44;;;;;;;;;;;20.40;64.60;;;;;;5053058;28;19972;-66
2022/10/13 07:20:10;;;;;;;;;;;20.40;64.50;;;;;;5034451;28;19925;-66
2022/10/13 07:22:35;;;;;;;;;;;20.40;64.50;;;;;;5053644;28;19950;-66
2022/10/13 07:25:01;;;;;;;;;;;20.40;64.50;;;;;;5053036;28;19925;-66
2022/10/13 07:27:26;;;;;;;;;;;20.40;64.40;;;;;;5052346;28;20110;-66
2022/10/13 07:29:52;;;;;;;;;;;20.40;64.40;;;;;;5053543;28;20011;-66
2022/10/13 07:32:17;;;;;;;;;;;20.40;64.40;;;;;;5068161;28;19928;-66
2022/10/13 07:34:43;;;;;;;;;;;20.40;64.30;;;;;;5052285;28;19924;-67
2022/10/13 07:37:08;;;;;;;;;;;20.40;64.90;;;;;;5034908;28;20008;-66
2022/10/13 07:39:34;;;;;;;;;;;20.40;64.30;;;;;;5052544;28;19931;-66
2022/10/13 07:41:59;;;;;;;;;;;20.50;64.30;;;;;;5053137;28;19925;-66
2022/10/13 07:44:25;;;;;;;;;;;20.40;64.20;;;;;;5052781;28;20027;-67
2022/10/13 07:46:50;;;;;;;;;;;20.40;64.10;;;;;;5034642;28;19943;-66
2022/10/13 07:49:16;;;;;;;;;;;20.50;64.20;;;;;;5052962;28;20345;-66
2022/10/13 07:51:42;;;;;;;;;;;20.40;64.10;;;;;;5053169;28;19924;-66
2022/10/13 07:54:07;;;;;;;;;;;20.40;64.00;;;;;;5051797;28;19936;-67
2022/10/13 07:56:33;;;;;;;;;;;20.40;64.00;;;;;;5052915;28;20330;-67
2022/10/13 07:58:58;;;;;;;;;;;20.50;64.00;;;;;;5035353;28;19932;-66
2022/10/13 08:01:24;;;;;;;;;;;20.50;64.00;;;;;;5033799;28;20346;-66
2022/10/13 08:03:49;;;;;;;;;;;20.50;63.90;;;;;;5052736;28;19931;-67
2022/10/13 08:06:14;;;;;;;;;;;20.50;63.90;;;;;;5034541;28;19947;-66
2022/10/13 08:08:40;;;;;;;;;;;20.50;63.80;;;;;;5052136;28;19925;-66
2022/10/13 08:11:06;;;;;;;;;;;20.50;63.80;;;;;;5051788;28;19932;-65
2022/10/13 08:13:32;;;;;;;;;;;20.60;63.90;;;;;;5049172;28;19925;-66
2022/10/13 08:16:00;;;;;;;;;;;20.60;64.00;;;;;;5051158;28;20311;-65
2022/10/13 08:18:26;;;;;;;;;;;20.60;64.00;;;;;;5052241;28;19928;-65
2022/10/13 08:20:51;;;;;;;;;;;20.60;64.10;;;;;;5052643;28;19924;-65
2022/10/13 08:23:17;;;;;;;;;;;20.60;64.10;;;;;;5051339;28;19929;-65
2022/10/13 08:25:42;;;;;;;;;;;20.70;64.20;;;;;;5052488;28;19924;-65
2022/10/13 08:28:14;;;;;;;;;;;20.70;64.10;;;;;;5052486;28;19925;-65
2022/10/13 08:30:39;;;;;;;;;;;20.70;64.20;;;;;;5067352;28;20006;-65
2022/10/13 08:33:05;;;;;;;;;;;20.70;64.20;;;;;;5052471;28;19987;-64
2022/10/13 08:35:30;;;;;;;;;;;20.80;64.20;;;;;;5052455;28;19925;-64
2022/10/13 08:37:56;;;;;;;;;;;20.80;64.10;;;;;;5056241;28;19925;-64
2022/10/13 08:40:22;;;;;;;;;;;20.80;64.10;;;;;;5057020;28;19956;-64
2022/10/13 08:42:47;;;;;;;;;;;20.80;64.10;;;;;;5056036;28;19948;-66
2022/10/13 08:45:17;;;;;;;;;;;20.80;64.20;;;;;;5055965;28;19924;-65
2022/10/13 08:47:44;;;;;;;;;;;20.80;64.20;;;;;;5071984;28;20019;-65
2022/10/13 08:50:13;;;;;;;;;;;20.80;64.30;;;;;;5055319;28;19929;-66
2022/10/13 08:52:49;;;;;;;;;;;20.80;64.40;;;;;;5054950;28;20376;-65
2022/10/13 08:55:28;;;;;;;;;;;20.90;64.30;;;;;;5071305;28;19925;-66
2022/10/13 08:57:54;;;;;;;;;;;20.90;64.40;;;;;;5071080;28;20022;-64
2022/10/13 09:00:19;;;;;;;;;;;20.90;64.40;;;;;;5054928;28;19932;-64
2022/10/13 09:02:45;;;;;;;;;;;20.90;64.30;;;;;;5055716;28;20300;-64
2022/10/13 09:05:12;;;;;;;;;;;20.90;64.40;;;;;;5054791;28;19929;-64
2022/10/13 09:07:38;;;;;;;;;;;20.90;64.40;;;;;;5056108;28;19928;-65
2022/10/13 09:10:04;;;;;;;;;;;20.90;64.40;;;;;;5056079;28;19940;-65
2022/10/13 09:12:30;;;;;;;;;;;20.90;64.60;;;;;;5054905;28;20023;-64
2022/10/13 09:15:00;;;;;;;;;;;20.90;64.50;;;;;;5055909;28;20326;-65
2022/10/13 09:17:25;;;;;;;;;;;20.90;64.50;;;;;;5037631;28;19929;-65
2022/10/13 09:19:58;;;;;;;;;;;20.90;64.50;;;;;;5054974;28;20399;-65
2022/10/13 09:22:24;;;;;;;;;;;20.90;64.60;;;;;;5055297;28;20273;-65
2022/10/13 09:25:05;;;;;;;;;;;20.90;64.60;;;;;;5055941;28;19925;-65
2022/10/13 09:27:40;;;;;;;;;;;20.90;64.60;;;;;;5055533;28;19925;-65
2022/10/13 09:30:24;;;;;;;;;;;20.90;64.70;;;;;;5055519;28;19932;-64
2022/10/13 09:32:50;;;;;;;;;;;21.00;64.80;;;;;;5054679;28;20303;-64
2022/10/13 09:35:19;;;;;;;;;;;20.90;64.70;;;;;;5070981;28;20380;-64
2022/10/13 09:37:45;;;;;;;;;;;20.90;64.70;;;;;;5055283;28;20319;-65
2022/10/13 09:40:11;;;;;;;;;;;20.90;64.70;;;;;;5070088;28;19925;-64
2022/10/13 09:42:37;;;;;;;;;;;20.90;64.60;;;;;;5055194;28;20273;-62
2022/10/13 09:45:15;;;;;;;;;;;21.00;64.70;;;;;;5055558;28;20434;-61
2022/10/13 09:47:41;;;;;;;;;;;21.00;64.70;;;;;;5068791;28;20385;-64
2022/10/13 09:50:16;;;;;;;;;;;20.90;64.70;;;;;;5070259;28;19951;-65
2022/10/13 09:52:43;;;;;;;;;;;21.00;64.80;;;;;;5055304;28;19925;-64
2022/10/13 09:55:29;;;;;;;;;;;21.00;64.70;;;;;;5036265;28;19978;-63
2022/10/13 09:57:55;;;;;;;;;;;21.00;64.80;;;;;;5054538;28;19979;-64
2022/10/13 10:00:21;;;;;;;;;;;21.00;64.80;;;;;;5069379;28;19924;-63
2022/10/13 10:03:05;;;;;;;;;;;21.00;64.80;;;;;;5055100;28;19928;-63
2022/10/13 10:05:40;;;;;;;;;;;21.00;64.80;;;;;;5054979;28;20015;-62
2022/10/13 10:08:10;;;;;;;;;;;21.00;64.80;;;;;;5069650;28;19932;-63
2022/10/13 10:10:35;;;;;;;;;;;21.00;64.80;;;;;;5070418;28;19975;-63
2022/10/13 10:13:01;;;;;;;;;;;21.00;64.70;;;;;;5053465;28;19962;-63
2022/10/13 10:15:48;;;;;;;;;;;21.00;64.80;;;;;;5053591;28;20387;-62
2022/10/13 10:18:18;;;;;;;;;;;21.00;64.80;;;;;;5046970;28;19925;-63
2022/10/13 10:20:46;;;;;;;;;;;21.00;64.70;;;;;;5054981;28;19925;-63
2022/10/13 10:23:13;;;;;;;;;;;21.00;64.70;;;;;;5068778;28;19924;-63
2022/10/13 10:25:40;;;;;;;;;;;21.10;64.80;;;;;;5054862;28;20399;-63
2022/10/13 10:28:24;;;;;;;;;;;21.00;64.80;;;;;;5069811;28;19947;-63
2022/10/13 10:30:52;;;;;;;;;;;21.00;64.80;;;;;;5036445;28;20360;-64
2022/10/13 10:33:19;;;;;;;;;;;21.10;64.90;;;;;;5049388;28;20736;-63
2022/10/13 10:35:48;;;;;;;;;;;21.00;64.80;;;;;;5057717;28;20062;-63
2022/10/13 10:38:33;;;;;;;;;;;21.00;64.90;;;;;;5057047;28;19925;-63
2022/10/13 10:41:12;;;;;;;;;;;21.00;65.00;;;;;;5039520;28;19928;-63
2022/10/13 10:44:00;;;;;;;;;;;21.00;64.90;;;;;;5061590;28;19925;-64
2022/10/13 10:46:31;;;;;;;;;;;21.00;64.90;;;;;;5047321;28;19929;-64
2022/10/13 10:49:01;;;;;;;;;;;21.00;64.80;;;;;;5069254;28;19978;-64
2022/10/13 10:51:34;;;;;;;;;;;21.00;64.90;;;;;;5084939;28;19928;-64
2022/10/13 10:54:19;;;;;;;;;;;21.00;64.80;;;;;;5069444;28;19964;-63
2022/10/13 10:56:58;;;;;;;;;;;21.00;64.80;;;;;;5053361;28;19971;-64
2022/10/13 10:59:28;;;;;;;;;;;21.00;64.80;;;;;;5053071;28;19970;-64
2022/10/13 11:02:01;;;;;;;;;;;21.00;64.90;;;;;;5053176;28;19951;-64
2022/10/13 11:04:35;;;;;;;;;;;21.00;64.90;;;;;;5068409;28;19928;-64
2022/10/13 11:07:01;;;;;;;;;;;21.00;64.90;;;;;;5069063;28;19924;-64
2022/10/13 11:09:39;;;;;;;;;;;21.00;65.00;;;;;;5053445;28;19929;-68
2022/10/13 11:12:20;;;;;;;;;;;21.00;65.00;;;;;;5053080;28;19931;-63
2022/10/13 11:15:00;;;;;;;;;;;21.00;65.00;;;;;;5069066;28;19925;-63
2022/10/13 11:17:30;;;;;;;;;;;21.00;65.10;;;;;;5053119;28;20558;-63
2022/10/13 11:19:55;;;;;;;;;;;21.00;65.10;;;;;;5052872;28;20021;-64
2022/10/13 11:22:21;;;;;;;;;;;21.00;65.10;;;;;;5053395;28;20344;-64
2022/10/13 11:24:48;;;;;;;;;;;21.00;65.20;;;;;;5068250;28;19931;-63
2022/10/13 11:27:13;;;;;;;;;;;21.00;65.30;;;;;;5053258;28;20008;-63
2022/10/13 11:29:42;;;;;;;;;;;21.00;65.20;;;;;;5052756;28;20023;-63
2022/10/13 11:32:40;;;;;;;;;;;20.90;65.30;;;;;;5034201;28;19933;-63
2022/10/13 11:35:05;;;;;;;;;;;20.90;65.30;;;;;;5052700;28;19925;-62
2022/10/13 11:37:34;;;;;;;;;;;20.90;65.30;;;;;;5052817;28;19932;-63
2022/10/13 11:40:21;;;;;;;;;;;20.90;65.40;;;;;;5067197;28;22373;-63
2022/10/13 11:43:05;;;;;;;;;;;20.90;65.40;;;;;;5052839;28;20285;-63
2022/10/13 11:45:30;;;;;;;;;;;20.90;65.50;;;;;;5052890;28;19993;-63
2022/10/13 11:48:08;;;;;;;;;;;20.90;65.50;;;;;;5052068;28;19932;-63
2022/10/13 11:50:52;;;;;;;;;;;20.80;65.40;;;;;;5053241;28;19928;-63
2022/10/13 11:53:31;;;;;;;;;;;20.80;65.60;;;;;;5052137;28;19929;-63
2022/10/13 11:55:57;;;;;;;;;;;20.90;65.60;;;;;;5053019;28;20008;-63
2022/10/13 11:58:23;;;;;;;;;;;20.80;65.60;;;;;;5052472;28;20293;-62
2022/10/13 12:00:58;;;;;;;;;;;20.80;65.60;;;;;;5052356;28;19974;-63
2022/10/13 12:03:33;;;;;;;;;;;20.90;65.70;;;;;;5052597;28;19935;-63
2022/10/13 12:06:03;;;;;;;;;;;20.80;65.70;;;;;;5052948;28;20011;-62
2022/10/13 12:08:29;;;;;;;;;;;20.80;65.80;;;;;;5051904;28;19936;-62
2022/10/13 12:10:56;;;;;;;;;;;20.80;65.70;;;;;;5067422;28;19974;-63
2022/10/13 12:13:25;;;;;;;;;;;20.80;65.80;;;;;;5067709;28;20046;-62
2022/10/13 12:16:02;;;;;;;;;;;20.80;65.80;;;;;;5066957;28;19924;-63
2022/10/13 12:18:33;;;;;;;;;;;20.80;65.80;;;;;;5065028;28;19925;-64
2022/10/13 12:21:02;;;;;;;;;;;20.70;65.80;;;;;;5033908;28;19935;-64
2022/10/13 12:23:29;;;;;;;;;;;20.80;65.90;;;;;;5052468;28;19932;-64
2022/10/13 12:25:57;;;;;;;;;;;20.80;66.00;;;;;;5052922;28;19928;-64
2022/10/13 12:28:24;;;;;;;;;;;20.70;65.90;;;;;;5051587;28;20003;-64
2022/10/13 12:30:50;;;;;;;;;;;20.70;65.90;;;;;;5052832;28;19925;-65
2022/10/13 12:33:33;;;;;;;;;;;20.70;66.00;;;;;;5051962;28;19925;-64
2022/10/13 12:36:31;;;;;;;;;;;20.70;66.00;;;;;;5052058;28;20025;-64
2022/10/13 12:39:12;;;;;;;;;;;20.70;66.00;;;;;;5029549;28;19925;-64
2022/10/13 12:41:39;;;;;;;;;;;20.70;66.00;;;;;;5067832;28;19924;-64
2022/10/13 12:44:04;;;;;;;;;;;20.70;66.10;;;;;;5066965;28;19924;-64
2022/10/13 12:46:39;;;;;;;;;;;20.70;66.10;;;;;;5052252;28;19925;-64
2022/10/13 12:49:06;;;;;;;;;;;20.70;66.10;;;;;;5066858;28;19932;-68
2022/10/13 12:51:32;;;;;;;;;;;20.70;66.10;;;;;;5052227;28;19925;-64
2022/10/13 12:53:58;;;;;;;;;;;20.70;66.20;;;;;;5067295;28;20012;-64
2022/10/13 12:56:27;;;;;;;;;;;20.70;66.10;;;;;;5050877;28;20082;-65
2022/10/13 12:58:52;;;;;;;;;;;20.70;66.20;;;;;;5051708;28;19929;-65
2022/10/13 13:01:31;;;;;;;;;;;20.70;66.20;;;;;;5066755;28;19933;-64
2022/10/13 13:04:15;;;;;;;;;;;20.70;66.20;;;;;;5049687;28;20320;-65
2022/10/13 13:06:40;;;;;;;;;;;20.70;66.30;;;;;;5050979;28;19968;-64
2022/10/13 13:09:19;;;;;;;;;;;20.70;66.30;;;;;;5066091;28;20386;-64
2022/10/13 13:11:45;;;;;;;;;;;20.70;66.20;;;;;;5048278;28;19928;-64
2022/10/13 13:14:29;;;;;;;;;;;20.70;66.30;;;;;;5066535;28;20015;-64
2022/10/13 13:17:01;;;;;;;;;;;20.70;66.30;;;;;;5050030;28;19924;-65
2022/10/13 13:19:29;;;;;;;;;;;20.70;66.40;;;;;;5047088;28;19929;-64
2022/10/13 13:21:54;;;;;;;;;;;20.70;66.40;;;;;;5051449;28;19925;-65
2022/10/13 13:24:20;;;;;;;;;;;20.70;66.30;;;;;;5054021;28;19936;-65
2022/10/13 13:26:45;;;;;;;;;;;20.70;66.40;;;;;;5054749;28;20036;-64
2022/10/13 13:29:11;;;;;;;;;;;20.70;66.40;;;;;;5054314;28;19924;-64
2022/10/13 13:31:36;;;;;;;;;;;20.70;66.40;;;;;;5053778;28;19924;-63
2022/10/13 13:34:02;;;;;;;;;;;20.60;66.40;;;;;;5054263;28;19928;-63
2022/10/13 13:36:28;;;;;;;;;;;20.60;66.50;;;;;;5054415;28;19925;-64
2022/10/13 13:38:54;;;;;;;;;;;20.60;66.50;;;;;;5069236;28;19947;-63
2022/10/13 13:41:19;;;;;;;;;;;20.60;66.40;;;;;;5054754;28;20300;-64
2022/10/13 13:43:45;;;;;;;;;;;20.60;67.10;;;;;;5054792;28;19925;-64
2022/10/13 13:46:11;;;;;;;;;;;20.60;66.60;;;;;;5053548;28;19975;-63
2022/10/13 13:48:37;;;;;;;;;;;20.60;66.60;;;;;;5054755;28;19925;-64
2022/10/13 13:51:02;;;;;;;;;;;20.60;66.70;;;;;;5054681;28;19925;-64
2022/10/13 13:53:28;;;;;;;;;;;20.60;66.60;;;;;;5053671;28;20038;-64
2022/10/13 13:55:53;;;;;;;;;;;20.60;66.60;;;;;;5054646;28;19935;-64
2022/10/13 13:58:19;;;;;;;;;;;20.60;66.70;;;;;;5054612;28;20007;-65
2022/10/13 14:00:45;;;;;;;;;;;20.60;66.70;;;;;;5054151;28;19925;-65
2022/10/13 14:03:11;;;;;;;;;;;20.60;66.70;;;;;;5053981;28;19974;-64
2022/10/13 14:05:40;;;;;;;;;;;20.60;66.70;;;;;;5054842;28;19925;-64
2022/10/13 14:08:05;;;;;;;;;;;20.60;66.80;;;;;;5035554;28;20011;-65
2022/10/13 14:10:31;;;;;;;;;;;20.60;66.80;;;;;;5054622;28;19956;-66
2022/10/13 14:12:56;;;;;;;;;;;20.60;66.80;;;;;;5054423;28;19925;-65
2022/10/13 14:15:22;;;;;;;;;;;20.60;66.80;;;;;;5053156;28;19982;-64
2022/10/13 14:17:47;;;;;;;;;;;20.60;66.80;;;;;;5054023;28;20023;-66
2022/10/13 14:20:13;;;;;;;;;;;20.60;66.80;;;;;;5052521;28;20376;-65
2022/10/13 14:22:38;;;;;;;;;;;20.70;66.90;;;;;;5053566;28;19971;-64